Yangon, Burma
Current Conditions -  °F | °C
As of 11:00 PM on Tuesday 27 Jan 2015 (Local Time) from VYYY Reporting Station
Clear Clear  
Wind Chill: 22°   Ceiling: Unl
Heat Index: 22°   Visibility: 4mi
Dew Point: 16°   Wind: 2mph
Humidity: 69%   Direction: 340°NNW
Pressure: 29.94"   Gusts: NA
Location:  16.79°N, 96.15°E
Report Text: VYYY 271700Z 34002KT 6000 NSC 22/16 Q1014 NOSIG
Loading
Personal Weather Stations






























Interactive Weather Map New forecast layout! Learn more

10-Day Weather Forecast

Advertisements
Track Severe Weather on mobile